createdAt,value
2017-04-14T00:00:55.559Z,9.70
2017-04-14T00:01:55.109Z,9.70
2017-04-14T00:02:55.015Z,9.70
2017-04-14T00:03:55.016Z,9.70
2017-04-14T00:04:54.599Z,9.70
2017-04-14T00:05:54.279Z,9.70
2017-04-14T00:06:53.835Z,9.70
2017-04-14T00:07:53.992Z,9.70
2017-04-14T00:08:53.577Z,9.70
2017-04-14T00:09:53.194Z,9.70
2017-04-14T00:10:52.731Z,9.80
2017-04-14T00:11:52.319Z,9.70
2017-04-14T00:12:51.883Z,9.70
2017-04-14T00:13:51.433Z,9.70
2017-04-14T00:14:50.994Z,9.60
2017-04-14T00:15:50.680Z,9.60
2017-04-14T00:16:50.415Z,9.70
2017-04-14T00:17:50.097Z,9.60
2017-04-14T00:18:49.631Z,9.60
2017-04-14T00:19:49.992Z,9.60
2017-04-14T00:20:49.687Z,9.60
2017-04-14T00:21:49.263Z,9.60
2017-04-14T00:22:49.595Z,9.60
2017-04-14T00:23:49.164Z,9.70
2017-04-14T00:24:48.863Z,9.70
2017-04-14T00:25:49.219Z,9.60
2017-04-14T00:26:48.888Z,9.70
2017-04-14T00:27:49.560Z,9.60
2017-04-14T00:28:49.279Z,9.60
2017-04-14T00:29:48.962Z,9.60
2017-04-14T00:30:48.559Z,9.60
2017-04-14T00:31:48.368Z,9.60
2017-04-14T00:32:48.010Z,9.60
2017-04-14T00:33:48.298Z,9.60
2017-04-14T00:34:48.598Z,9.60
2017-04-14T00:35:48.416Z,9.60
2017-04-14T00:36:48.052Z,9.60
2017-04-14T00:37:47.587Z,9.60
2017-04-14T00:38:47.190Z,9.60
2017-04-14T00:39:46.771Z,9.60
2017-04-14T00:40:46.389Z,9.60
2017-04-14T00:41:45.927Z,9.60
2017-04-14T00:42:45.623Z,9.60
2017-04-14T00:43:45.324Z,9.60
2017-04-14T00:44:45.642Z,9.50
2017-04-14T00:45:45.987Z,9.60
2017-04-14T00:46:45.518Z,9.60
2017-04-14T00:47:45.084Z,9.60
2017-04-14T00:48:44.700Z,9.60
2017-04-14T00:49:44.777Z,9.60
2017-04-14T00:50:45.845Z,9.60
2017-04-14T00:51:45.411Z,9.70
2017-04-14T00:52:45.056Z,9.60
2017-04-14T00:53:44.691Z,9.60
2017-04-14T00:54:44.228Z,9.50
2017-04-14T00:55:44.047Z,9.50
2017-04-14T00:56:43.675Z,9.50
2017-04-14T00:57:44.272Z,9.50
2017-04-14T00:58:43.838Z,9.50
2017-04-14T00:59:43.575Z,9.50
2017-04-14T01:00:43.180Z,9.50
2017-04-14T01:01:42.975Z,9.50
2017-04-14T01:02:42.572Z,9.50
2017-04-14T01:03:42.120Z,9.50
2017-04-14T01:04:41.722Z,9.50
2017-04-14T01:05:41.478Z,9.50
2017-04-14T01:06:41.075Z,9.50
2017-04-14T01:07:40.695Z,9.50
2017-04-14T01:08:40.726Z,9.50
2017-04-14T01:09:40.252Z,9.50
2017-04-14T01:10:39.998Z,9.50
2017-04-14T01:11:40.311Z,9.40
2017-04-14T01:12:39.897Z,9.50
2017-04-14T01:13:40.163Z,9.40
2017-04-14T01:14:39.860Z,9.50
2017-04-14T01:15:39.724Z,9.50
2017-04-14T01:16:39.291Z,9.60
2017-04-14T01:17:39.002Z,9.50
2017-04-14T01:18:38.609Z,9.50
2017-04-14T01:19:38.921Z,9.50
2017-04-14T01:20:38.512Z,9.50
2017-04-14T01:21:38.068Z,9.50
2017-04-14T01:22:37.700Z,9.50
2017-04-14T01:23:37.280Z,9.50
2017-04-14T01:24:36.866Z,9.50
2017-04-14T01:25:36.395Z,9.40
2017-04-14T01:26:35.941Z,9.50
2017-04-14T01:27:36.951Z,9.40
2017-04-14T01:28:36.720Z,9.40
2017-04-14T01:29:36.266Z,9.40
2017-04-14T01:30:35.790Z,9.40
2017-04-14T01:31:35.363Z,9.30
2017-04-14T01:32:34.992Z,9.40
2017-04-14T01:33:34.555Z,9.30
2017-04-14T01:34:34.123Z,9.40
2017-04-14T01:35:34.731Z,9.40
2017-04-14T01:36:34.303Z,9.40
2017-04-14T01:37:33.866Z,9.40
2017-04-14T01:38:34.151Z,9.40
2017-04-14T01:39:34.490Z,9.30
2017-04-14T01:40:34.211Z,9.40
2017-04-14T01:41:34.063Z,9.40
2017-04-14T01:42:34.727Z,9.40
2017-04-14T01:43:34.632Z,9.40
2017-04-14T01:44:34.227Z,9.40
2017-04-14T01:45:33.750Z,9.40
2017-04-14T01:46:34.067Z,9.40
2017-04-14T01:47:33.611Z,9.30
2017-04-14T01:48:33.183Z,9.40
2017-04-14T01:49:32.763Z,9.40
2017-04-14T01:50:32.509Z,9.40
2017-04-14T01:51:32.207Z,9.30
2017-04-14T01:52:31.740Z,9.30
2017-04-14T01:53:31.372Z,9.30
2017-04-14T01:54:31.027Z,9.30
2017-04-14T01:55:30.570Z,9.30
2017-04-14T01:56:30.124Z,9.30
2017-04-14T01:57:29.695Z,9.30
2017-04-14T01:58:29.244Z,9.30
2017-04-14T01:59:28.813Z,9.40
2017-04-14T02:00:28.407Z,9.40
2017-04-14T02:01:28.085Z,9.40
2017-04-14T02:02:27.837Z,9.40
2017-04-14T02:03:27.408Z,9.40
2017-04-14T02:04:27.068Z,9.40
2017-04-14T02:05:27.363Z,9.30
2017-04-14T02:06:26.892Z,9.40
2017-04-14T02:07:27.287Z,9.30
2017-04-14T02:08:27.927Z,9.40
2017-04-14T02:09:27.636Z,9.40
2017-04-14T02:10:27.315Z,9.40
2017-04-14T02:11:26.943Z,9.40
2017-04-14T02:12:26.483Z,9.40
2017-04-14T02:13:26.136Z,9.30
2017-04-14T02:14:25.783Z,9.40
2017-04-14T02:15:25.786Z,9.30
2017-04-14T02:16:25.331Z,9.30
2017-04-14T02:17:24.883Z,9.40
2017-04-14T02:18:24.454Z,9.30
2017-04-14T02:19:24.127Z,9.40
2017-04-14T02:20:23.779Z,9.40
2017-04-14T02:21:23.447Z,9.30
2017-04-14T02:22:23.644Z,9.30
2017-04-14T02:23:23.167Z,9.30
2017-04-14T02:24:22.727Z,9.30
2017-04-14T02:25:22.488Z,9.30
2017-04-14T02:26:22.172Z,9.30
2017-04-14T02:27:21.795Z,9.40
2017-04-14T02:28:21.370Z,9.30
2017-04-14T02:29:20.948Z,9.40
2017-04-14T02:30:20.552Z,9.30
2017-04-14T02:31:20.195Z,9.30
2017-04-14T02:32:19.914Z,9.30
2017-04-14T02:33:19.848Z,9.30
2017-04-14T02:34:19.493Z,9.30
2017-04-14T02:35:19.769Z,9.30
2017-04-14T02:36:19.350Z,9.30
2017-04-14T02:37:18.923Z,9.30
2017-04-14T02:38:19.249Z,9.20
2017-04-14T02:39:18.832Z,9.20
2017-04-14T02:40:18.361Z,9.20
2017-04-14T02:41:17.968Z,9.20
2017-04-14T02:42:17.555Z,9.20
2017-04-14T02:43:17.214Z,9.20
2017-04-14T02:44:17.448Z,9.20
2017-04-14T02:45:17.006Z,9.20
2017-04-14T02:46:16.582Z,9.20
2017-04-14T02:47:16.243Z,9.10
2017-04-14T02:49:17.068Z,9.10
2017-04-14T02:50:16.644Z,9.20
2017-04-14T02:51:16.287Z,9.20
2017-04-14T02:52:15.966Z,9.10
2017-04-14T02:53:15.552Z,9.20
2017-04-14T02:54:15.107Z,9.20
2017-04-14T02:55:14.632Z,9.20
2017-04-14T02:56:14.224Z,9.20
2017-04-14T02:57:13.780Z,9.20
2017-04-14T02:58:13.583Z,9.20
2017-04-14T02:59:13.145Z,9.20
2017-04-14T03:00:13.459Z,9.30
2017-04-14T03:01:13.979Z,9.20
2017-04-14T03:02:13.623Z,9.30
2017-04-14T03:03:13.599Z,9.20
2017-04-14T03:04:13.161Z,9.20
2017-04-14T03:05:12.958Z,9.20
2017-04-14T03:06:12.672Z,9.20
2017-04-14T03:07:12.982Z,9.20
2017-04-14T03:08:12.730Z,9.20
2017-04-14T03:09:12.272Z,9.20
2017-04-14T03:11:11.830Z,9.10
2017-04-14T03:12:11.397Z,9.10
2017-04-14T03:13:11.958Z,9.10
2017-04-14T03:14:11.555Z,9.10
2017-04-14T03:15:11.087Z,9.10
2017-04-14T03:16:10.644Z,9.10
2017-04-14T03:17:10.194Z,9.10
2017-04-14T03:18:10.652Z,9.10
2017-04-14T03:19:10.451Z,9.10
2017-04-14T03:20:09.983Z,9.20
2017-04-14T03:21:09.693Z,9.20
2017-04-14T03:22:09.941Z,9.10
2017-04-14T03:23:10.432Z,9.10
2017-04-14T03:24:10.023Z,9.10
2017-04-14T03:25:10.299Z,9.10
2017-04-14T03:26:10.124Z,9.10
2017-04-14T03:27:09.682Z,9.10
2017-04-14T03:28:09.851Z,9.00
2017-04-14T03:29:09.416Z,9.00
2017-04-14T03:30:09.170Z,9.00
2017-04-14T03:31:09.513Z,8.90
2017-04-14T03:32:09.067Z,9.00
2017-04-14T03:33:09.404Z,9.00
2017-04-14T03:34:09.694Z,9.00
2017-04-14T03:35:09.435Z,9.20
2017-04-14T03:36:09.044Z,9.30
2017-04-14T03:37:08.975Z,9.20
2017-04-14T03:38:08.525Z,9.20
2017-04-14T03:39:08.132Z,9.20
2017-04-14T03:40:07.703Z,9.20
2017-04-14T03:41:08.041Z,9.10
2017-04-14T03:42:07.658Z,9.10
2017-04-14T03:43:07.650Z,9.20
2017-04-14T03:44:07.184Z,9.10
2017-04-14T03:45:07.278Z,9.20
2017-04-14T03:46:06.887Z,9.20
2017-04-14T03:47:06.888Z,9.20
2017-04-14T03:48:06.495Z,9.10
2017-04-14T03:49:06.427Z,9.10
2017-04-14T03:50:06.015Z,9.10
2017-04-14T03:51:05.636Z,9.10
2017-04-14T03:52:05.975Z,9.10
2017-04-14T03:53:05.749Z,9.10
2017-04-14T03:54:05.284Z,9.00
2017-04-14T03:55:04.836Z,9.00
2017-04-14T03:56:04.416Z,9.00
2017-04-14T03:57:03.959Z,9.00
2017-04-14T03:58:03.598Z,9.00
2017-04-14T03:59:03.119Z,9.00
2017-04-14T04:00:02.714Z,9.10
2017-04-14T04:01:02.316Z,9.10
2017-04-14T04:02:02.138Z,9.00
2017-04-14T04:03:02.388Z,9.00
2017-04-14T04:04:02.028Z,9.00
2017-04-14T04:05:01.765Z,9.00
2017-04-14T04:06:01.555Z,9.00
2017-04-14T04:07:01.845Z,9.00
2017-04-14T04:08:01.521Z,9.00
2017-04-14T04:09:01.050Z,9.00
2017-04-14T04:10:00.635Z,9.00
2017-04-14T04:11:00.203Z,9.00
2017-04-14T04:11:59.807Z,9.00
2017-04-14T04:12:59.428Z,9.00
2017-04-14T04:13:59.132Z,9.00
2017-04-14T04:14:59.359Z,9.00
2017-04-14T04:15:59.107Z,8.90
2017-04-14T04:16:58.799Z,8.90
2017-04-14T04:17:58.640Z,8.90
2017-04-14T04:18:58.270Z,8.90
2017-04-14T04:19:58.568Z,8.90
2017-04-14T04:20:58.343Z,8.90
2017-04-14T04:21:58.050Z,8.90
2017-04-14T04:22:57.610Z,8.90
2017-04-14T04:23:57.365Z,9.00
2017-04-14T04:24:57.657Z,8.90
2017-04-14T04:25:57.260Z,8.90
2017-04-14T04:26:57.007Z,8.90
2017-04-14T04:27:56.631Z,8.90
2017-04-14T04:28:56.228Z,8.90
2017-04-14T04:29:55.838Z,8.80
2017-04-14T04:30:55.782Z,8.90
2017-04-14T04:32:01.309Z,8.80
2017-04-14T04:33:06.014Z,8.80
2017-04-14T04:34:12.144Z,8.80
2017-04-14T04:35:11.976Z,8.80
2017-04-14T04:36:11.578Z,8.80
2017-04-14T04:37:11.259Z,8.80
2017-04-14T04:38:10.970Z,8.80
2017-04-14T04:39:10.672Z,8.80
2017-04-14T04:40:10.344Z,8.90
2017-04-14T04:41:09.878Z,8.80
2017-04-14T04:42:09.466Z,8.80
2017-04-14T04:43:09.222Z,8.80
2017-04-14T04:44:08.791Z,8.80
2017-04-14T04:45:09.532Z,8.70
2017-04-14T04:46:09.250Z,8.70
2017-04-14T04:47:08.838Z,8.70
2017-04-14T04:48:08.409Z,8.80
2017-04-14T04:49:08.147Z,8.80
2017-04-14T04:50:07.727Z,8.80
2017-04-14T04:51:07.494Z,8.80
2017-04-14T04:52:07.151Z,8.90
2017-04-14T04:53:06.711Z,8.80
2017-04-14T04:54:07.119Z,8.80
2017-04-14T04:55:07.812Z,8.80
2017-04-14T04:56:07.483Z,8.80
2017-04-14T04:57:07.051Z,8.90
2017-04-14T04:58:07.792Z,8.90
2017-04-14T04:59:07.439Z,9.00
2017-04-14T05:00:07.171Z,9.00
2017-04-14T05:01:06.811Z,9.00
2017-04-14T05:02:06.398Z,8.90
2017-04-14T05:03:06.323Z,9.00
2017-04-14T05:04:05.923Z,8.90
2017-04-14T05:05:06.180Z,9.00
2017-04-14T05:06:05.756Z,9.00
2017-04-14T05:07:05.580Z,9.00
2017-04-14T05:08:05.313Z,9.00
2017-04-14T05:09:05.663Z,9.00
2017-04-14T05:10:05.207Z,9.00
2017-04-14T05:11:07.192Z,8.90
2017-04-14T05:12:06.825Z,9.00
2017-04-14T05:13:06.383Z,9.00
2017-04-14T05:14:05.916Z,9.00
2017-04-14T05:15:05.544Z,9.00
2017-04-14T05:16:05.877Z,9.00
2017-04-14T05:17:05.447Z,9.00
2017-04-14T05:18:05.556Z,9.00
2017-04-14T05:19:05.096Z,9.10
2017-04-14T05:20:04.640Z,9.10
2017-04-14T05:21:04.327Z,9.10
2017-04-14T05:22:03.856Z,9.10
2017-04-14T05:23:03.566Z,9.10
2017-04-14T05:24:03.096Z,9.10
2017-04-14T05:25:02.720Z,9.10
2017-04-14T05:26:02.868Z,9.10
2017-04-14T05:27:02.487Z,9.10
2017-04-14T05:28:02.060Z,9.10
2017-04-14T05:29:02.601Z,9.10
2017-04-14T05:30:02.246Z,9.20
2017-04-14T05:31:01.903Z,9.30
2017-04-14T05:32:01.639Z,9.30
2017-04-14T05:33:01.323Z,9.30
2017-04-14T05:34:01.108Z,9.30
2017-04-14T05:35:00.707Z,9.20
2017-04-14T05:36:00.260Z,9.30
2017-04-14T05:36:59.807Z,9.30
2017-04-14T05:37:59.635Z,9.30
2017-04-14T05:38:59.368Z,9.40
2017-04-14T05:39:59.875Z,9.40
2017-04-14T05:40:59.529Z,9.40
2017-04-14T05:41:59.067Z,9.40
2017-04-14T05:43:58.439Z,9.50
2017-04-14T05:44:57.996Z,9.40
2017-04-14T05:45:58.300Z,9.50
2017-04-14T05:46:58.888Z,9.50
2017-04-14T05:47:58.468Z,9.60
2017-04-14T05:48:58.023Z,9.50
2017-04-14T05:49:57.779Z,9.50
2017-04-14T05:50:58.331Z,9.50
2017-04-14T05:51:58.632Z,9.50
2017-04-14T05:52:58.213Z,9.50
2017-04-14T05:53:57.794Z,9.60
2017-04-14T05:54:57.365Z,9.60
2017-04-14T05:55:56.943Z,9.60
2017-04-14T05:56:56.555Z,9.60
2017-04-14T05:57:57.728Z,9.50
2017-04-14T05:58:57.314Z,9.60
2017-04-14T05:59:56.900Z,9.60
2017-04-14T06:00:56.462Z,9.70
2017-04-14T06:01:56.067Z,9.70
2017-04-14T06:02:55.627Z,9.70
2017-04-14T06:03:55.179Z,9.70
2017-04-14T06:04:54.704Z,9.70
2017-04-14T06:05:54.228Z,9.60
2017-04-14T06:06:53.756Z,9.70
2017-04-14T06:07:53.437Z,9.70
2017-04-14T06:08:53.003Z,9.70
2017-04-14T06:09:52.548Z,9.80
2017-04-14T06:10:52.080Z,9.80
2017-04-14T06:11:51.799Z,9.80
2017-04-14T06:12:51.375Z,9.80
2017-04-14T06:13:50.976Z,9.70
2017-04-14T06:14:51.215Z,9.70
2017-04-14T06:15:50.761Z,9.70
2017-04-14T06:16:50.356Z,9.70
2017-04-14T06:17:50.630Z,9.70
2017-04-14T06:18:50.183Z,9.70
2017-04-14T06:19:49.729Z,9.70
2017-04-14T06:20:49.319Z,9.70
2017-04-14T06:21:48.868Z,9.70
2017-04-14T06:22:48.424Z,9.80
2017-04-14T06:23:48.044Z,9.70
2017-04-14T06:24:47.617Z,9.70
2017-04-14T06:25:47.215Z,9.80
2017-04-14T06:26:47.447Z,9.70
2017-04-14T06:27:47.016Z,9.80
2017-04-14T06:28:46.735Z,9.80
2017-04-14T06:29:46.309Z,9.80
2017-04-14T06:30:45.947Z,9.80
2017-04-14T06:31:45.515Z,9.90
2017-04-14T06:32:45.020Z,9.90
2017-04-14T06:33:44.603Z,9.70
2017-04-14T06:34:44.208Z,9.80
2017-04-14T06:35:43.804Z,9.80
2017-04-14T06:36:44.055Z,9.70
2017-04-14T06:37:43.770Z,9.60
2017-04-14T06:38:43.343Z,9.60
2017-04-14T06:39:42.891Z,9.70
2017-04-14T06:40:42.449Z,9.70
2017-04-14T06:41:42.055Z,9.70
2017-04-14T06:42:41.604Z,9.70
2017-04-14T06:43:41.202Z,9.80
2017-04-14T06:44:40.771Z,9.80
2017-04-14T06:45:40.343Z,9.80
2017-04-14T06:46:39.987Z,9.90
2017-04-14T06:47:40.332Z,9.80
2017-04-14T06:48:39.917Z,9.90
2017-04-14T06:49:39.449Z,9.90
2017-04-14T06:50:39.072Z,9.90
2017-04-14T06:51:38.609Z,10.00
2017-04-14T06:52:38.181Z,10.00
2017-04-14T06:53:37.764Z,10.00
2017-04-14T06:54:37.318Z,10.00
2017-04-14T06:55:36.918Z,10.00
2017-04-14T06:56:36.471Z,10.00
2017-04-14T06:57:36.057Z,10.00
2017-04-14T06:58:35.733Z,10.00
2017-04-14T06:59:35.339Z,9.90
2017-04-14T07:00:34.884Z,9.90
2017-04-14T07:01:34.524Z,9.90
2017-04-14T07:02:34.451Z,9.90
2017-04-14T07:03:33.987Z,10.00
2017-04-14T07:04:33.683Z,10.10
2017-04-14T07:05:33.385Z,10.10
2017-04-14T07:06:32.996Z,10.10
2017-04-14T07:07:33.404Z,10.20
2017-04-14T07:08:33.915Z,10.20
2017-04-14T07:09:33.477Z,10.30
2017-04-14T07:10:33.019Z,10.30
2017-04-14T07:11:33.326Z,10.30
2017-04-14T07:12:32.918Z,10.20
2017-04-14T07:13:32.586Z,10.20
2017-04-14T07:14:32.528Z,10.10
2017-04-14T07:15:32.076Z,10.10
2017-04-14T07:16:31.627Z,10.10
2017-04-14T07:17:32.110Z,10.20
2017-04-14T07:18:31.695Z,10.30
2017-04-14T07:19:32.575Z,10.40
2017-04-14T07:20:32.115Z,10.50
2017-04-14T07:21:31.656Z,10.50
2017-04-14T07:22:31.222Z,10.60
2017-04-14T07:23:30.981Z,10.50
2017-04-14T07:24:30.646Z,10.50
2017-04-14T07:25:30.215Z,10.60
2017-04-14T07:26:29.782Z,10.60
2017-04-14T07:27:29.592Z,10.60
2017-04-14T07:28:29.522Z,10.60
2017-04-14T07:29:29.119Z,10.60
2017-04-14T07:30:28.708Z,10.70
2017-04-14T07:31:28.291Z,10.70
2017-04-14T07:32:27.998Z,10.80
2017-04-14T07:33:27.653Z,10.80
2017-04-14T07:34:28.018Z,10.80
2017-04-14T07:35:27.950Z,10.80
2017-04-14T07:36:27.503Z,10.80
2017-04-14T07:37:27.060Z,10.80
2017-04-14T07:38:26.615Z,10.80
2017-04-14T07:39:26.217Z,10.80
2017-04-14T07:40:25.867Z,10.90
2017-04-14T07:41:25.514Z,10.90
2017-04-14T07:42:25.100Z,11.00
2017-04-14T07:43:24.704Z,11.00
2017-04-14T07:44:24.249Z,11.00
2017-04-14T07:45:23.776Z,11.00
2017-04-14T07:46:23.415Z,11.10
2017-04-14T07:47:22.965Z,11.10
2017-04-14T07:48:22.543Z,11.10
2017-04-14T07:49:22.078Z,11.20
2017-04-14T07:50:21.799Z,11.20
2017-04-14T07:51:21.348Z,11.30
2017-04-14T07:52:21.135Z,11.30
2017-04-14T07:53:20.694Z,11.40
2017-04-14T07:54:20.268Z,11.40
2017-04-14T07:55:19.872Z,11.40
2017-04-14T07:56:19.442Z,11.30
2017-04-14T07:57:19.774Z,11.40
2017-04-14T07:58:19.425Z,11.40
2017-04-14T07:59:18.997Z,11.40
2017-04-14T08:00:18.719Z,11.40
2017-04-14T08:01:18.291Z,11.60
2017-04-14T08:02:17.823Z,11.60
2017-04-14T08:03:17.652Z,11.60
2017-04-14T08:04:17.215Z,11.70
2017-04-14T08:05:16.777Z,11.40
2017-04-14T08:06:16.327Z,11.20
2017-04-14T08:07:16.023Z,11.10
2017-04-14T08:08:15.599Z,11.20
2017-04-14T08:09:15.183Z,11.40
2017-04-14T08:10:14.915Z,11.50
2017-04-14T08:11:14.489Z,11.60
2017-04-14T08:12:14.032Z,11.80
2017-04-14T08:13:13.760Z,11.80
2017-04-14T08:14:13.324Z,11.80
2017-04-14T08:15:12.864Z,11.90
2017-04-14T08:16:12.478Z,12.00
2017-04-14T08:17:12.113Z,11.90
2017-04-14T08:18:12.825Z,12.00
2017-04-14T08:19:12.433Z,12.10
2017-04-14T08:20:12.772Z,12.10
2017-04-14T08:21:12.437Z,12.20
2017-04-14T08:22:12.075Z,12.20
2017-04-14T08:23:11.664Z,12.10
2017-04-14T08:24:11.231Z,11.80
2017-04-14T08:25:10.784Z,11.80
2017-04-14T08:26:10.665Z,11.80
2017-04-14T08:27:10.234Z,11.90
2017-04-14T08:28:09.844Z,12.20
2017-04-14T08:29:09.520Z,12.30
2017-04-14T08:30:09.076Z,12.20
2017-04-14T08:31:08.690Z,12.40
2017-04-14T08:32:12.134Z,12.30
2017-04-14T08:33:11.731Z,12.30
2017-04-14T08:34:11.261Z,12.40
2017-04-14T08:35:11.494Z,12.50
2017-04-14T08:36:11.434Z,12.70
2017-04-14T08:37:11.151Z,12.50
2017-04-14T08:38:10.722Z,12.80
2017-04-14T08:39:10.720Z,12.90
2017-04-14T08:40:10.292Z,12.90
2017-04-14T08:41:09.884Z,12.80
2017-04-14T08:42:09.442Z,12.80
2017-04-14T08:43:09.062Z,12.90
2017-04-14T08:44:08.628Z,12.90
2017-04-14T08:45:08.323Z,11.50
2017-04-14T08:46:07.892Z,12.70
2017-04-14T08:47:07.477Z,12.90
2017-04-14T08:48:07.398Z,12.90
2017-04-14T08:49:06.951Z,12.90
2017-04-14T08:50:06.542Z,12.90
2017-04-14T08:51:06.103Z,12.90
2017-04-14T08:52:05.714Z,13.00
2017-04-14T08:53:05.336Z,13.10
2017-04-14T08:54:05.077Z,13.10
2017-04-14T08:55:04.683Z,13.30
2017-04-14T08:56:04.373Z,13.40
2017-04-14T08:57:04.156Z,13.50
2017-04-14T08:58:03.738Z,13.50
2017-04-14T08:59:03.443Z,13.40
2017-04-14T09:00:03.329Z,13.50
2017-04-14T09:01:02.891Z,13.50
2017-04-14T09:02:02.491Z,13.60
2017-04-14T09:03:02.542Z,13.70
2017-04-14T09:04:02.096Z,13.80
2017-04-14T09:05:01.803Z,13.70
2017-04-14T09:06:01.426Z,14.00
2017-04-14T09:07:00.943Z,13.80
2017-04-14T09:08:00.491Z,13.80
2017-04-14T09:09:00.121Z,13.80
2017-04-14T09:09:59.684Z,14.00
2017-04-14T09:10:59.737Z,14.10
2017-04-14T09:11:59.303Z,13.90
2017-04-14T09:12:58.896Z,13.90
2017-04-14T09:13:58.454Z,14.00
2017-04-14T09:14:58.015Z,13.80
2017-04-14T09:15:57.563Z,13.40
2017-04-14T09:16:57.632Z,13.60
2017-04-14T09:17:57.185Z,13.90
2017-04-14T09:18:56.792Z,14.20
2017-04-14T09:19:56.444Z,14.50
2017-04-14T09:20:56.016Z,14.70
2017-04-14T09:21:55.703Z,14.80
2017-04-14T09:22:55.292Z,14.70
2017-04-14T09:23:54.877Z,14.30
2017-04-14T09:24:54.547Z,14.30
2017-04-14T09:25:54.174Z,14.20
2017-04-14T09:26:54.529Z,14.20
2017-04-14T09:27:54.156Z,14.20
2017-04-14T09:28:53.801Z,14.30
2017-04-14T09:29:53.448Z,14.20
2017-04-14T09:30:53.084Z,14.00
2017-04-14T09:31:52.653Z,13.80
2017-04-14T09:32:53.028Z,13.80
2017-04-14T09:33:52.633Z,13.60
2017-04-14T09:34:52.243Z,13.50
2017-04-14T09:35:52.567Z,13.50
2017-04-14T09:36:52.146Z,13.40
2017-04-14T09:37:51.733Z,13.70
2017-04-14T09:38:51.303Z,13.90
2017-04-14T09:39:50.950Z,13.90
2017-04-14T09:40:50.485Z,13.90
2017-04-14T09:41:50.192Z,14.00
2017-04-14T09:42:50.483Z,14.20
2017-04-14T09:43:50.163Z,14.20
2017-04-14T09:44:49.758Z,14.20
2017-04-14T09:45:49.356Z,14.00
2017-04-14T09:46:49.283Z,14.20
2017-04-14T09:47:48.856Z,14.40
2017-04-14T09:48:48.452Z,14.50
2017-04-14T09:49:48.083Z,14.50
2017-04-14T09:50:47.711Z,14.20
2017-04-14T09:51:47.659Z,14.20
2017-04-14T09:52:47.272Z,14.40
2017-04-14T09:53:47.219Z,14.50
2017-04-14T09:54:46.873Z,14.60
2017-04-14T09:55:46.420Z,14.80
2017-04-14T09:56:46.008Z,14.90
2017-04-14T09:57:45.581Z,14.90
2017-04-14T09:58:45.103Z,15.00
2017-04-14T09:59:44.680Z,14.90
2017-04-14T10:00:44.288Z,14.90
2017-04-14T10:01:43.960Z,14.90
2017-04-14T10:02:43.591Z,15.00
2017-04-14T10:03:43.555Z,14.80
2017-04-14T10:04:43.152Z,14.60
2017-04-14T10:05:42.818Z,14.60
2017-04-14T10:06:42.372Z,14.50
2017-04-14T10:07:41.971Z,14.50
2017-04-14T10:08:41.616Z,14.40
2017-04-14T10:09:41.202Z,14.50
2017-04-14T10:10:40.762Z,14.50
2017-04-14T10:11:40.339Z,14.40
2017-04-14T10:12:40.545Z,14.40
2017-04-14T10:13:40.146Z,14.50
2017-04-14T10:14:39.716Z,14.60
2017-04-14T10:15:39.514Z,14.60
2017-04-14T10:16:39.205Z,14.50
2017-04-14T10:17:39.247Z,14.30
2017-04-14T10:18:38.936Z,14.20
2017-04-14T10:19:38.511Z,14.20
2017-04-14T10:20:38.068Z,14.00
2017-04-14T10:21:38.058Z,14.10
2017-04-14T10:22:37.636Z,14.10
2017-04-14T10:23:37.385Z,13.90
2017-04-14T10:24:36.961Z,14.10
2017-04-14T10:25:36.612Z,14.10
2017-04-14T10:26:36.192Z,12.90
2017-04-14T10:27:35.737Z,14.10
2017-04-14T10:28:35.365Z,14.30
2017-04-14T10:29:35.002Z,14.30
2017-04-14T10:30:34.765Z,14.30
2017-04-14T10:31:34.364Z,14.20
2017-04-14T10:32:34.247Z,14.30
2017-04-14T10:33:33.918Z,14.10
2017-04-14T10:34:33.503Z,13.90
2017-04-14T10:35:33.175Z,13.70
2017-04-14T10:36:32.826Z,13.40
2017-04-14T10:37:32.435Z,13.30
2017-04-14T10:38:32.010Z,13.40
2017-04-14T10:39:32.240Z,13.50
2017-04-14T10:40:31.827Z,13.50
2017-04-14T10:41:31.413Z,13.40
2017-04-14T10:42:30.983Z,13.40
2017-04-14T10:43:30.566Z,13.40
2017-04-14T10:44:30.838Z,13.50
2017-04-14T10:45:30.425Z,13.40
2017-04-14T10:46:30.007Z,13.30
2017-04-14T10:47:30.300Z,13.30
2017-04-14T10:48:30.327Z,13.30
2017-04-14T10:49:29.900Z,13.40
2017-04-14T10:50:29.529Z,13.50
2017-04-14T10:51:29.083Z,13.60
2017-04-14T10:52:28.655Z,13.60
2017-04-14T10:53:28.875Z,13.60
2017-04-14T10:54:28.585Z,13.60
2017-04-14T10:55:28.191Z,13.70
2017-04-14T10:56:27.759Z,13.60
2017-04-14T10:57:27.314Z,13.40
2017-04-14T10:58:26.927Z,13.40
2017-04-14T10:59:26.933Z,13.40
2017-04-14T11:00:26.610Z,13.30
2017-04-14T11:01:26.620Z,13.40
2017-04-14T11:02:26.183Z,13.20
2017-04-14T11:03:26.608Z,13.10
2017-04-14T11:04:26.244Z,13.20
2017-04-14T11:05:25.816Z,13.00
2017-04-14T11:06:25.387Z,13.10
2017-04-14T11:07:24.967Z,13.10
2017-04-14T11:08:24.577Z,13.30
2017-04-14T11:09:24.153Z,13.40
2017-04-14T11:10:23.691Z,13.60
2017-04-14T11:11:23.286Z,13.80
2017-04-14T11:12:22.882Z,13.80
2017-04-14T11:13:23.163Z,13.80
2017-04-14T11:14:23.383Z,13.80
2017-04-14T11:15:22.987Z,13.80
2017-04-14T11:16:22.607Z,13.80
2017-04-14T11:17:22.135Z,13.80
2017-04-14T11:18:21.691Z,14.10
2017-04-14T11:19:21.420Z,14.40
2017-04-14T11:20:21.043Z,14.40
2017-04-14T11:21:20.711Z,14.70
2017-04-14T11:22:20.288Z,14.90
2017-04-14T11:23:19.958Z,15.10
2017-04-14T11:24:19.547Z,15.30
2017-04-14T11:25:19.163Z,15.50
2017-04-14T11:26:18.777Z,15.70
2017-04-14T11:27:18.343Z,15.90
2017-04-14T11:28:17.960Z,15.80
2017-04-14T11:29:17.488Z,16.10
2017-04-14T11:30:17.166Z,15.70
2017-04-14T11:31:17.415Z,15.20
2017-04-14T11:32:16.964Z,15.10
2017-04-14T11:33:16.654Z,14.90
2017-04-14T11:34:16.224Z,14.90
2017-04-14T11:35:15.869Z,15.00
2017-04-14T11:36:15.468Z,14.90
2017-04-14T11:37:15.379Z,14.50
2017-04-14T11:38:15.367Z,14.50
2017-04-14T11:39:16.279Z,14.70
2017-04-14T11:40:15.837Z,14.90
2017-04-14T11:41:15.463Z,14.90
2017-04-14T11:42:15.324Z,15.00
2017-04-14T11:43:14.943Z,15.10
2017-04-14T11:44:14.530Z,15.00
2017-04-14T11:45:14.207Z,15.00
2017-04-14T11:46:13.795Z,14.90
2017-04-14T11:47:13.387Z,14.80
2017-04-14T11:48:12.963Z,14.90
2017-04-14T11:49:12.578Z,14.90
2017-04-14T11:50:12.184Z,14.70
2017-04-14T11:51:11.771Z,14.70
2017-04-14T11:52:11.359Z,14.50
2017-04-14T11:53:10.955Z,14.50
2017-04-14T11:54:10.547Z,14.60
2017-04-14T11:55:10.203Z,14.50
2017-04-14T11:56:10.837Z,14.30
2017-04-14T11:57:10.401Z,14.20
2017-04-14T11:58:10.363Z,14.00
2017-04-14T11:59:10.631Z,13.90
2017-04-14T12:00:10.395Z,14.00
2017-04-14T12:01:09.955Z,14.00
2017-04-14T12:02:09.592Z,14.10
2017-04-14T12:03:09.205Z,14.10
2017-04-14T12:04:08.886Z,14.00
2017-04-14T12:05:08.473Z,14.00
2017-04-14T12:06:08.066Z,14.10
2017-04-14T12:07:07.688Z,14.20
2017-04-14T12:08:07.641Z,14.50
2017-04-14T12:09:07.295Z,14.60
2017-04-14T12:10:06.837Z,14.80
2017-04-14T12:11:06.775Z,15.10
2017-04-14T12:12:06.415Z,15.30
2017-04-14T12:13:05.961Z,15.50
2017-04-14T12:14:05.600Z,15.60
2017-04-14T12:15:05.112Z,15.50
2017-04-14T12:16:04.664Z,15.20
2017-04-14T12:17:04.275Z,15.00
2017-04-14T12:18:03.891Z,14.80
2017-04-14T12:19:03.585Z,14.70
2017-04-14T12:20:03.211Z,14.60
2017-04-14T12:21:02.779Z,14.40
2017-04-14T12:22:02.475Z,14.40
2017-04-14T12:23:02.004Z,14.50
2017-04-14T12:24:01.555Z,14.60
2017-04-14T12:25:01.135Z,14.50
2017-04-14T12:26:00.756Z,14.70
2017-04-14T12:27:00.352Z,14.90
2017-04-14T12:27:59.995Z,14.90
2017-04-14T12:29:00.282Z,15.00
2017-04-14T12:29:59.906Z,15.00
2017-04-14T12:30:59.506Z,15.00
2017-04-14T12:31:59.044Z,14.90
2017-04-14T12:32:58.624Z,14.80
2017-04-14T12:33:58.205Z,14.70
2017-04-14T12:34:57.779Z,14.70
2017-04-14T12:35:57.410Z,14.70
2017-04-14T12:36:57.027Z,14.40
2017-04-14T12:37:56.591Z,14.50
2017-04-14T12:38:56.286Z,14.50
2017-04-14T12:39:55.832Z,14.50
2017-04-14T12:40:55.482Z,14.50
2017-04-14T12:41:55.087Z,14.60
2017-04-14T12:42:54.815Z,14.60
2017-04-14T12:43:54.400Z,14.50
2017-04-14T12:44:54.056Z,14.50
2017-04-14T12:45:53.596Z,14.50
2017-04-14T12:46:53.195Z,14.50
2017-04-14T12:47:52.762Z,14.50
2017-04-14T12:48:52.408Z,14.40
2017-04-14T12:49:52.058Z,14.50
2017-04-14T12:50:51.634Z,14.60
2017-04-14T12:51:51.195Z,14.60
2017-04-14T12:52:50.830Z,14.70
2017-04-14T12:53:50.403Z,14.90
2017-04-14T12:54:50.077Z,15.00
2017-04-14T12:55:49.696Z,14.90
2017-04-14T12:56:49.274Z,15.00
2017-04-14T12:57:49.626Z,15.00
2017-04-14T12:58:49.220Z,15.20
2017-04-14T12:59:48.839Z,15.10
2017-04-14T13:00:48.451Z,15.20
2017-04-14T13:01:48.104Z,15.40
2017-04-14T13:02:47.747Z,15.50
2017-04-14T13:03:47.372Z,15.60
2017-04-14T13:04:46.975Z,15.70
2017-04-14T13:05:46.680Z,15.40
2017-04-14T13:06:46.284Z,15.30